sensor_id;sensor_type;location;lat;lon;timestamp;P1;durP1;ratioP1;P2;durP2;ratioP2
6898;SDS011;3488;42.616;23.350;2024-01-30T00:01:10;7.65;;;3.78;;
6898;SDS011;3488;42.616;23.350;2024-01-30T00:06:02;7.55;;;3.65;;
6898;SDS011;3488;42.616;23.350;2024-01-30T00:08:28;6.70;;;3.45;;
6898;SDS011;3488;42.616;23.350;2024-01-30T00:13:19;8.05;;;3.65;;
6898;SDS011;3488;42.616;23.350;2024-01-30T00:15:45;8.30;;;3.50;;
6898;SDS011;3488;42.616;23.350;2024-01-30T00:18:11;6.95;;;2.85;;
6898;SDS011;3488;42.616;23.350;2024-01-30T00:23:01;9.27;;;3.10;;
6898;SDS011;3488;42.616;23.350;2024-01-30T00:27:52;5.38;;;2.65;;
6898;SDS011;3488;42.616;23.350;2024-01-30T00:32:43;6.30;;;2.70;;
6898;SDS011;3488;42.616;23.350;2024-01-30T00:37:35;6.47;;;2.70;;
6898;SDS011;3488;42.616;23.350;2024-01-30T00:42:26;8.57;;;3.08;;
6898;SDS011;3488;42.616;23.350;2024-01-30T00:47:17;11.30;;;3.40;;
6898;SDS011;3488;42.616;23.350;2024-01-30T00:52:08;6.15;;;2.72;;
6898;SDS011;3488;42.616;23.350;2024-01-30T00:56:59;8.30;;;3.42;;
6898;SDS011;3488;42.616;23.350;2024-01-30T01:01:50;9.68;;;3.63;;
6898;SDS011;3488;42.616;23.350;2024-01-30T01:06:42;8.45;;;3.22;;
6898;SDS011;3488;42.616;23.350;2024-01-30T01:09:10;8.20;;;3.20;;
6898;SDS011;3488;42.616;23.350;2024-01-30T01:11:37;9.45;;;3.40;;
6898;SDS011;3488;42.616;23.350;2024-01-30T01:16:28;7.07;;;3.00;;
6898;SDS011;3488;42.616;23.350;2024-01-30T01:21:19;10.45;;;3.25;;
6898;SDS011;3488;42.616;23.350;2024-01-30T01:26:10;8.13;;;3.10;;
6898;SDS011;3488;42.616;23.350;2024-01-30T01:31:01;4.55;;;2.33;;
6898;SDS011;3488;42.616;23.350;2024-01-30T01:33:31;6.07;;;2.47;;
6898;SDS011;3488;42.616;23.350;2024-01-30T01:36:00;5.78;;;2.35;;
6898;SDS011;3488;42.616;23.350;2024-01-30T01:38:29;5.72;;;2.03;;
6898;SDS011;3488;42.616;23.350;2024-01-30T01:43:19;4.57;;;1.77;;
6898;SDS011;3488;42.616;23.350;2024-01-30T01:45:45;4.50;;;2.25;;
6898;SDS011;3488;42.616;23.350;2024-01-30T01:50:37;4.68;;;1.70;;
6898;SDS011;3488;42.616;23.350;2024-01-30T01:53:03;3.80;;;1.88;;
6898;SDS011;3488;42.616;23.350;2024-01-30T01:55:33;3.78;;;1.73;;
6898;SDS011;3488;42.616;23.350;2024-01-30T01:58:00;6.18;;;2.60;;
6898;SDS011;3488;42.616;23.350;2024-01-30T02:02:52;6.65;;;2.28;;
6898;SDS011;3488;42.616;23.350;2024-01-30T02:05:19;7.03;;;2.25;;
6898;SDS011;3488;42.616;23.350;2024-01-30T02:07:46;6.55;;;2.22;;
6898;SDS011;3488;42.616;23.350;2024-01-30T02:12:37;7.82;;;2.80;;
6898;SDS011;3488;42.616;23.350;2024-01-30T02:17:30;8.90;;;3.67;;
6898;SDS011;3488;42.616;23.350;2024-01-30T02:22:21;6.78;;;3.05;;
6898;SDS011;3488;42.616;23.350;2024-01-30T02:24:47;8.18;;;3.20;;
6898;SDS011;3488;42.616;23.350;2024-01-30T02:29:38;6.25;;;2.45;;
6898;SDS011;3488;42.616;23.350;2024-01-30T02:34:29;6.07;;;2.42;;
6898;SDS011;3488;42.616;23.350;2024-01-30T02:39:20;5.18;;;2.38;;
6898;SDS011;3488;42.616;23.350;2024-01-30T02:41:46;5.22;;;2.25;;
6898;SDS011;3488;42.616;23.350;2024-01-30T02:44:11;5.55;;;3.10;;
6898;SDS011;3488;42.616;23.350;2024-01-30T02:49:03;5.13;;;2.20;;
6898;SDS011;3488;42.616;23.350;2024-01-30T02:51:28;6.60;;;2.50;;
6898;SDS011;3488;42.616;23.350;2024-01-30T02:53:54;6.78;;;2.33;;
6898;SDS011;3488;42.616;23.350;2024-01-30T02:58:45;5.60;;;2.33;;
6898;SDS011;3488;42.616;23.350;2024-01-30T03:01:10;5.63;;;2.42;;
6898;SDS011;3488;42.616;23.350;2024-01-30T03:06:01;5.82;;;2.30;;
6898;SDS011;3488;42.616;23.350;2024-01-30T03:08:27;6.05;;;3.25;;
6898;SDS011;3488;42.616;23.350;2024-01-30T03:10:53;4.88;;;3.03;;
6898;SDS011;3488;42.616;23.350;2024-01-30T03:13:19;6.28;;;2.75;;
6898;SDS011;3488;42.616;23.350;2024-01-30T03:15:48;5.55;;;2.22;;
6898;SDS011;3488;42.616;23.350;2024-01-30T03:18:14;6.43;;;2.55;;
6898;SDS011;3488;42.616;23.350;2024-01-30T03:20:39;5.05;;;2.78;;
6898;SDS011;3488;42.616;23.350;2024-01-30T03:23:05;5.22;;;1.55;;
6898;SDS011;3488;42.616;23.350;2024-01-30T03:25:30;8.05;;;2.88;;
6898;SDS011;3488;42.616;23.350;2024-01-30T03:27:56;6.03;;;2.42;;
6898;SDS011;3488;42.616;23.350;2024-01-30T03:32:47;7.28;;;2.10;;
6898;SDS011;3488;42.616;23.350;2024-01-30T03:35:13;7.18;;;2.78;;
6898;SDS011;3488;42.616;23.350;2024-01-30T03:40:03;5.57;;;2.30;;
6898;SDS011;3488;42.616;23.350;2024-01-30T03:42:30;5.97;;;2.20;;
6898;SDS011;3488;42.616;23.350;2024-01-30T03:47:21;3.80;;;2.03;;
6898;SDS011;3488;42.616;23.350;2024-01-30T03:52:13;5.07;;;2.22;;
6898;SDS011;3488;42.616;23.350;2024-01-30T03:57:04;3.90;;;2.08;;
6898;SDS011;3488;42.616;23.350;2024-01-30T03:59:30;3.97;;;2.15;;
6898;SDS011;3488;42.616;23.350;2024-01-30T04:01:56;3.72;;;1.63;;
6898;SDS011;3488;42.616;23.350;2024-01-30T04:06:48;4.47;;;1.73;;
6898;SDS011;3488;42.616;23.350;2024-01-30T04:11:39;3.80;;;2.10;;
6898;SDS011;3488;42.616;23.350;2024-01-30T04:14:05;4.38;;;2.38;;
6898;SDS011;3488;42.616;23.350;2024-01-30T04:18:57;2.70;;;1.48;;
6898;SDS011;3488;42.616;23.350;2024-01-30T04:21:23;3.58;;;1.80;;
6898;SDS011;3488;42.616;23.350;2024-01-30T04:26:18;3.40;;;1.77;;
6898;SDS011;3488;42.616;23.350;2024-01-30T04:28:46;3.85;;;1.55;;
6898;SDS011;3488;42.616;23.350;2024-01-30T04:31:12;3.88;;;1.70;;
6898;SDS011;3488;42.616;23.350;2024-01-30T04:36:03;3.22;;;1.65;;
6898;SDS011;3488;42.616;23.350;2024-01-30T04:38:30;3.38;;;1.23;;
6898;SDS011;3488;42.616;23.350;2024-01-30T04:40:56;3.38;;;1.60;;
6898;SDS011;3488;42.616;23.350;2024-01-30T04:45:48;3.47;;;1.45;;
6898;SDS011;3488;42.616;23.350;2024-01-30T04:48:14;3.85;;;1.35;;
6898;SDS011;3488;42.616;23.350;2024-01-30T04:53:05;2.67;;;1.42;;
6898;SDS011;3488;42.616;23.350;2024-01-30T04:57:57;3.05;;;1.98;;
6898;SDS011;3488;42.616;23.350;2024-01-30T05:02:47;3.47;;;1.37;;
6898;SDS011;3488;42.616;23.350;2024-01-30T05:07:40;2.78;;;1.38;;
6898;SDS011;3488;42.616;23.350;2024-01-30T05:10:06;4.43;;;1.73;;
6898;SDS011;3488;42.616;23.350;2024-01-30T05:12:33;3.47;;;1.83;;
6898;SDS011;3488;42.616;23.350;2024-01-30T05:17:24;4.72;;;1.63;;
6898;SDS011;3488;42.616;23.350;2024-01-30T05:22:15;4.85;;;1.42;;
6898;SDS011;3488;42.616;23.350;2024-01-30T05:24:43;3.65;;;1.75;;
6898;SDS011;3488;42.616;23.350;2024-01-30T05:29:33;3.38;;;2.20;;
6898;SDS011;3488;42.616;23.350;2024-01-30T05:34:25;4.25;;;2.13;;
6898;SDS011;3488;42.616;23.350;2024-01-30T05:36:50;4.32;;;1.45;;
6898;SDS011;3488;42.616;23.350;2024-01-30T05:41:42;2.53;;;1.25;;
6898;SDS011;3488;42.616;23.350;2024-01-30T05:46:33;2.55;;;1.00;;
6898;SDS011;3488;42.616;23.350;2024-01-30T05:49:00;3.47;;;1.73;;
6898;SDS011;3488;42.616;23.350;2024-01-30T05:53:51;4.28;;;1.92;;
6898;SDS011;3488;42.616;23.350;2024-01-30T05:58:42;3.50;;;1.55;;
6898;SDS011;3488;42.616;23.350;2024-01-30T06:01:08;4.15;;;1.73;;
6898;SDS011;3488;42.616;23.350;2024-01-30T06:03:34;4.22;;;2.00;;
6898;SDS011;3488;42.616;23.350;2024-01-30T06:08:25;4.53;;;1.85;;
6898;SDS011;3488;42.616;23.350;2024-01-30T06:13:17;3.50;;;1.88;;
6898;SDS011;3488;42.616;23.350;2024-01-30T06:18:08;3.65;;;1.52;;
6898;SDS011;3488;42.616;23.350;2024-01-30T06:20:34;4.88;;;1.58;;
6898;SDS011;3488;42.616;23.350;2024-01-30T06:25:25;2.85;;;1.25;;
6898;SDS011;3488;42.616;23.350;2024-01-30T06:27:50;3.58;;;1.52;;
6898;SDS011;3488;42.616;23.350;2024-01-30T06:32:41;3.35;;;1.70;;
6898;SDS011;3488;42.616;23.350;2024-01-30T06:37:33;3.47;;;1.90;;
6898;SDS011;3488;42.616;23.350;2024-01-30T06:42:24;4.03;;;1.92;;
6898;SDS011;3488;42.616;23.350;2024-01-30T06:47:14;2.57;;;1.20;;
6898;SDS011;3488;42.616;23.350;2024-01-30T06:49:40;3.22;;;1.30;;
6898;SDS011;3488;42.616;23.350;2024-01-30T06:52:07;3.30;;;1.42;;
6898;SDS011;3488;42.616;23.350;2024-01-30T06:54:33;3.58;;;1.38;;
6898;SDS011;3488;42.616;23.350;2024-01-30T06:59:24;3.05;;;1.27;;
6898;SDS011;3488;42.616;23.350;2024-01-30T07:04:15;2.63;;;1.30;;
6898;SDS011;3488;42.616;23.350;2024-01-30T07:06:41;3.92;;;1.27;;
6898;SDS011;3488;42.616;23.350;2024-01-30T07:11:33;4.00;;;1.75;;
6898;SDS011;3488;42.616;23.350;2024-01-30T07:16:24;2.53;;;1.25;;
6898;SDS011;3488;42.616;23.350;2024-01-30T07:18:50;3.42;;;1.50;;
6898;SDS011;3488;42.616;23.350;2024-01-30T07:23:41;2.88;;;1.23;;
6898;SDS011;3488;42.616;23.350;2024-01-30T07:26:07;3.03;;;1.45;;
6898;SDS011;3488;42.616;23.350;2024-01-30T07:28:34;1.95;;;0.90;;
6898;SDS011;3488;42.616;23.350;2024-01-30T07:31:00;3.10;;;1.15;;
6898;SDS011;3488;42.616;23.350;2024-01-30T07:33:26;3.08;;;1.75;;
6898;SDS011;3488;42.616;23.350;2024-01-30T07:38:18;3.35;;;2.22;;
6898;SDS011;3488;42.616;23.350;2024-01-30T07:43:09;1.92;;;0.85;;
6898;SDS011;3488;42.616;23.350;2024-01-30T07:45:35;2.80;;;1.35;;
6898;SDS011;3488;42.616;23.350;2024-01-30T07:50:26;3.38;;;1.38;;
6898;SDS011;3488;42.616;23.350;2024-01-30T07:52:52;3.97;;;1.77;;
6898;SDS011;3488;42.616;23.350;2024-01-30T07:58:04;3.40;;;1.67;;
6898;SDS011;3488;42.616;23.350;2024-01-30T08:00:30;3.50;;;1.67;;
6898;SDS011;3488;42.616;23.350;2024-01-30T08:02:56;3.10;;;1.35;;
6898;SDS011;3488;42.616;23.350;2024-01-30T08:05:22;6.70;;;1.90;;
6898;SDS011;3488;42.616;23.350;2024-01-30T08:07:48;4.00;;;1.48;;
6898;SDS011;3488;42.616;23.350;2024-01-30T08:10:14;3.78;;;1.80;;
6898;SDS011;3488;42.616;23.350;2024-01-30T08:12:40;3.42;;;1.70;;
6898;SDS011;3488;42.616;23.350;2024-01-30T08:15:06;4.30;;;1.95;;
6898;SDS011;3488;42.616;23.350;2024-01-30T08:17:32;3.63;;;2.83;;
6898;SDS011;3488;42.616;23.350;2024-01-30T08:19:58;4.25;;;2.75;;
6898;SDS011;3488;42.616;23.350;2024-01-30T08:24:49;3.60;;;1.30;;
6898;SDS011;3488;42.616;23.350;2024-01-30T08:27:14;8.10;;;3.25;;
6898;SDS011;3488;42.616;23.350;2024-01-30T08:29:40;11.18;;;4.50;;
6898;SDS011;3488;42.616;23.350;2024-01-30T08:32:06;9.80;;;4.75;;
6898;SDS011;3488;42.616;23.350;2024-01-30T08:34:31;10.25;;;4.10;;
6898;SDS011;3488;42.616;23.350;2024-01-30T08:36:57;5.75;;;2.60;;
6898;SDS011;3488;42.616;23.350;2024-01-30T08:39:23;8.57;;;3.78;;
6898;SDS011;3488;42.616;23.350;2024-01-30T08:44:14;3.88;;;1.65;;
6898;SDS011;3488;42.616;23.350;2024-01-30T08:46:40;3.95;;;1.58;;
6898;SDS011;3488;42.616;23.350;2024-01-30T08:49:05;14.55;;;4.35;;
6898;SDS011;3488;42.616;23.350;2024-01-30T08:51:31;11.35;;;4.85;;
6898;SDS011;3488;42.616;23.350;2024-01-30T08:53:56;5.05;;;2.28;;
6898;SDS011;3488;42.616;23.350;2024-01-30T08:56:22;4.15;;;2.33;;
6898;SDS011;3488;42.616;23.350;2024-01-30T08:58:47;6.78;;;2.05;;
6898;SDS011;3488;42.616;23.350;2024-01-30T09:01:13;4.18;;;1.90;;
6898;SDS011;3488;42.616;23.350;2024-01-30T09:03:39;5.30;;;1.92;;
6898;SDS011;3488;42.616;23.350;2024-01-30T09:06:09;17.10;;;6.25;;
6898;SDS011;3488;42.616;23.350;2024-01-30T09:08:35;10.30;;;5.15;;
6898;SDS011;3488;42.616;23.350;2024-01-30T09:11:00;9.95;;;4.25;;
6898;SDS011;3488;42.616;23.350;2024-01-30T09:13:26;12.27;;;5.00;;
6898;SDS011;3488;42.616;23.350;2024-01-30T09:15:51;6.28;;;2.58;;
6898;SDS011;3488;42.616;23.350;2024-01-30T09:18:18;12.93;;;6.25;;
6898;SDS011;3488;42.616;23.350;2024-01-30T09:20:43;4.47;;;2.20;;
6898;SDS011;3488;42.616;23.350;2024-01-30T09:23:12;5.20;;;2.33;;
6898;SDS011;3488;42.616;23.350;2024-01-30T09:25:38;4.82;;;2.35;;
6898;SDS011;3488;42.616;23.350;2024-01-30T09:28:04;5.78;;;2.75;;
6898;SDS011;3488;42.616;23.350;2024-01-30T09:30:30;6.50;;;2.72;;
6898;SDS011;3488;42.616;23.350;2024-01-30T09:32:56;4.45;;;2.35;;
6898;SDS011;3488;42.616;23.350;2024-01-30T09:35:21;5.60;;;2.50;;
6898;SDS011;3488;42.616;23.350;2024-01-30T09:37:46;4.38;;;1.90;;
6898;SDS011;3488;42.616;23.350;2024-01-30T09:40:13;4.35;;;2.35;;
6898;SDS011;3488;42.616;23.350;2024-01-30T09:42:43;5.25;;;2.53;;
6898;SDS011;3488;42.616;23.350;2024-01-30T09:45:13;5.75;;;2.90;;
6898;SDS011;3488;42.616;23.350;2024-01-30T09:47:40;6.18;;;2.25;;
6898;SDS011;3488;42.616;23.350;2024-01-30T09:50:13;5.00;;;2.20;;
6898;SDS011;3488;42.616;23.350;2024-01-30T09:52:40;6.70;;;2.90;;
6898;SDS011;3488;42.616;23.350;2024-01-30T09:55:07;5.45;;;2.72;;
6898;SDS011;3488;42.616;23.350;2024-01-30T09:57:33;7.47;;;2.58;;
6898;SDS011;3488;42.616;23.350;2024-01-30T10:00:00;5.57;;;2.60;;
6898;SDS011;3488;42.616;23.350;2024-01-30T10:02:26;5.72;;;2.00;;
6898;SDS011;3488;42.616;23.350;2024-01-30T10:04:51;5.25;;;2.10;;
6898;SDS011;3488;42.616;23.350;2024-01-30T10:07:17;6.70;;;2.80;;
6898;SDS011;3488;42.616;23.350;2024-01-30T10:09:44;5.25;;;2.33;;
6898;SDS011;3488;42.616;23.350;2024-01-30T10:12:10;6.28;;;2.70;;
6898;SDS011;3488;42.616;23.350;2024-01-30T10:14:39;6.63;;;2.92;;
6898;SDS011;3488;42.616;23.350;2024-01-30T10:17:05;4.25;;;2.78;;
6898;SDS011;3488;42.616;23.350;2024-01-30T10:19:34;7.97;;;3.28;;
6898;SDS011;3488;42.616;23.350;2024-01-30T10:22:00;5.18;;;2.47;;
6898;SDS011;3488;42.616;23.350;2024-01-30T10:24:28;5.97;;;2.75;;
6898;SDS011;3488;42.616;23.350;2024-01-30T10:26:56;5.93;;;2.55;;
6898;SDS011;3488;42.616;23.350;2024-01-30T10:29:22;5.68;;;2.60;;
6898;SDS011;3488;42.616;23.350;2024-01-30T10:32:04;7.50;;;2.70;;
6898;SDS011;3488;42.616;23.350;2024-01-30T10:34:30;10.02;;;2.40;;
6898;SDS011;3488;42.616;23.350;2024-01-30T10:39:38;5.82;;;2.65;;
6898;SDS011;3488;42.616;23.350;2024-01-30T10:42:05;7.45;;;2.85;;
6898;SDS011;3488;42.616;23.350;2024-01-30T10:44:44;7.03;;;3.47;;
6898;SDS011;3488;42.616;23.350;2024-01-30T10:47:30;6.07;;;2.33;;
6898;SDS011;3488;42.616;23.350;2024-01-30T10:49:56;5.65;;;2.55;;
6898;SDS011;3488;42.616;23.350;2024-01-30T10:52:25;6.15;;;2.55;;
6898;SDS011;3488;42.616;23.350;2024-01-30T10:54:51;5.43;;;2.22;;
6898;SDS011;3488;42.616;23.350;2024-01-30T10:57:17;7.80;;;2.47;;
6898;SDS011;3488;42.616;23.350;2024-01-30T10:59:43;5.60;;;2.88;;
6898;SDS011;3488;42.616;23.350;2024-01-30T11:02:10;5.75;;;2.67;;
6898;SDS011;3488;42.616;23.350;2024-01-30T11:04:40;5.38;;;2.42;;
6898;SDS011;3488;42.616;23.350;2024-01-30T11:07:19;5.60;;;2.42;;
6898;SDS011;3488;42.616;23.350;2024-01-30T11:09:54;6.00;;;2.50;;
6898;SDS011;3488;42.616;23.350;2024-01-30T11:12:28;5.43;;;2.50;;
6898;SDS011;3488;42.616;23.350;2024-01-30T11:15:04;6.13;;;2.78;;
6898;SDS011;3488;42.616;23.350;2024-01-30T11:20:27;6.63;;;2.25;;
6898;SDS011;3488;42.616;23.350;2024-01-30T11:22:56;7.57;;;2.47;;
6898;SDS011;3488;42.616;23.350;2024-01-30T11:25:23;4.80;;;2.40;;
6898;SDS011;3488;42.616;23.350;2024-01-30T11:27:53;4.80;;;2.15;;
6898;SDS011;3488;42.616;23.350;2024-01-30T11:30:27;5.75;;;2.22;;
6898;SDS011;3488;42.616;23.350;2024-01-30T11:32:58;4.93;;;1.75;;
6898;SDS011;3488;42.616;23.350;2024-01-30T11:35:26;4.95;;;2.50;;
6898;SDS011;3488;42.616;23.350;2024-01-30T11:37:52;6.63;;;2.53;;
6898;SDS011;3488;42.616;23.350;2024-01-30T11:40:19;4.53;;;2.05;;
6898;SDS011;3488;42.616;23.350;2024-01-30T11:42:44;5.10;;;2.58;;
6898;SDS011;3488;42.616;23.350;2024-01-30T11:45:12;3.95;;;2.08;;
6898;SDS011;3488;42.616;23.350;2024-01-30T11:47:38;9.57;;;4.15;;
6898;SDS011;3488;42.616;23.350;2024-01-30T11:50:04;4.60;;;2.05;;
6898;SDS011;3488;42.616;23.350;2024-01-30T11:52:31;4.72;;;2.20;;
6898;SDS011;3488;42.616;23.350;2024-01-30T11:54:58;5.95;;;2.20;;
6898;SDS011;3488;42.616;23.350;2024-01-30T11:57:26;4.82;;;2.22;;
6898;SDS011;3488;42.616;23.350;2024-01-30T11:59:52;5.00;;;2.17;;
6898;SDS011;3488;42.616;23.350;2024-01-30T12:02:18;4.05;;;2.05;;
6898;SDS011;3488;42.616;23.350;2024-01-30T12:04:43;5.97;;;2.50;;
6898;SDS011;3488;42.616;23.350;2024-01-30T12:07:09;5.93;;;2.42;;
6898;SDS011;3488;42.616;23.350;2024-01-30T12:09:35;4.18;;;2.00;;
6898;SDS011;3488;42.616;23.350;2024-01-30T12:12:01;4.78;;;2.47;;
6898;SDS011;3488;42.616;23.350;2024-01-30T12:14:26;5.60;;;2.55;;
6898;SDS011;3488;42.616;23.350;2024-01-30T12:16:52;4.20;;;2.65;;
6898;SDS011;3488;42.616;23.350;2024-01-30T12:19:22;3.90;;;1.77;;
6898;SDS011;3488;42.616;23.350;2024-01-30T12:21:53;5.97;;;2.42;;
6898;SDS011;3488;42.616;23.350;2024-01-30T12:24:19;4.63;;;2.38;;
6898;SDS011;3488;42.616;23.350;2024-01-30T12:26:45;4.22;;;2.10;;
6898;SDS011;3488;42.616;23.350;2024-01-30T12:29:11;4.32;;;1.88;;
6898;SDS011;3488;42.616;23.350;2024-01-30T12:31:36;5.25;;;2.00;;
6898;SDS011;3488;42.616;23.350;2024-01-30T12:34:02;4.97;;;2.33;;
6898;SDS011;3488;42.616;23.350;2024-01-30T12:36:28;5.55;;;2.90;;
6898;SDS011;3488;42.616;23.350;2024-01-30T12:38:55;5.03;;;2.53;;
6898;SDS011;3488;42.616;23.350;2024-01-30T12:41:22;4.55;;;2.20;;
6898;SDS011;3488;42.616;23.350;2024-01-30T12:43:53;6.47;;;2.38;;
6898;SDS011;3488;42.616;23.350;2024-01-30T12:46:19;4.85;;;2.28;;
6898;SDS011;3488;42.616;23.350;2024-01-30T12:48:45;7.75;;;2.28;;
6898;SDS011;3488;42.616;23.350;2024-01-30T12:51:10;4.63;;;2.05;;
6898;SDS011;3488;42.616;23.350;2024-01-30T12:53:36;4.28;;;2.45;;
6898;SDS011;3488;42.616;23.350;2024-01-30T12:56:02;6.45;;;2.10;;
6898;SDS011;3488;42.616;23.350;2024-01-30T12:58:27;5.13;;;2.42;;
6898;SDS011;3488;42.616;23.350;2024-01-30T13:00:53;5.95;;;2.55;;
6898;SDS011;3488;42.616;23.350;2024-01-30T13:03:19;5.60;;;2.58;;
6898;SDS011;3488;42.616;23.350;2024-01-30T13:05:45;5.95;;;2.80;;
6898;SDS011;3488;42.616;23.350;2024-01-30T13:08:10;5.78;;;2.45;;
6898;SDS011;3488;42.616;23.350;2024-01-30T13:10:36;6.45;;;2.85;;
6898;SDS011;3488;42.616;23.350;2024-01-30T13:13:02;5.53;;;2.92;;
6898;SDS011;3488;42.616;23.350;2024-01-30T13:15:27;6.32;;;2.60;;
6898;SDS011;3488;42.616;23.350;2024-01-30T13:17:53;6.95;;;3.10;;
6898;SDS011;3488;42.616;23.350;2024-01-30T13:20:19;5.38;;;2.28;;
6898;SDS011;3488;42.616;23.350;2024-01-30T13:22:47;5.90;;;2.60;;
6898;SDS011;3488;42.616;23.350;2024-01-30T13:25:16;5.05;;;2.10;;
6898;SDS011;3488;42.616;23.350;2024-01-30T13:27:42;6.65;;;2.42;;
6898;SDS011;3488;42.616;23.350;2024-01-30T13:30:08;5.15;;;2.88;;
6898;SDS011;3488;42.616;23.350;2024-01-30T13:32:34;4.85;;;2.22;;
6898;SDS011;3488;42.616;23.350;2024-01-30T13:35:00;5.30;;;2.33;;
6898;SDS011;3488;42.616;23.350;2024-01-30T13:37:25;5.53;;;2.40;;
6898;SDS011;3488;42.616;23.350;2024-01-30T13:39:51;6.35;;;2.95;;
6898;SDS011;3488;42.616;23.350;2024-01-30T13:42:16;5.15;;;2.22;;
6898;SDS011;3488;42.616;23.350;2024-01-30T13:44:42;6.22;;;2.85;;
6898;SDS011;3488;42.616;23.350;2024-01-30T13:47:10;5.32;;;3.13;;
6898;SDS011;3488;42.616;23.350;2024-01-30T13:49:36;6.05;;;2.80;;
6898;SDS011;3488;42.616;23.350;2024-01-30T13:52:01;6.35;;;2.25;;
6898;SDS011;3488;42.616;23.350;2024-01-30T13:54:28;6.88;;;3.28;;
6898;SDS011;3488;42.616;23.350;2024-01-30T13:56:54;7.07;;;3.90;;
6898;SDS011;3488;42.616;23.350;2024-01-30T13:59:19;5.72;;;2.75;;
6898;SDS011;3488;42.616;23.350;2024-01-30T14:01:49;4.22;;;2.25;;
6898;SDS011;3488;42.616;23.350;2024-01-30T14:04:15;5.20;;;2.05;;
6898;SDS011;3488;42.616;23.350;2024-01-30T14:06:41;5.75;;;2.67;;
6898;SDS011;3488;42.616;23.350;2024-01-30T14:09:07;6.40;;;3.00;;
6898;SDS011;3488;42.616;23.350;2024-01-30T14:11:32;6.78;;;3.00;;
6898;SDS011;3488;42.616;23.350;2024-01-30T14:13:58;5.93;;;2.40;;
6898;SDS011;3488;42.616;23.350;2024-01-30T14:16:24;6.32;;;2.75;;
6898;SDS011;3488;42.616;23.350;2024-01-30T14:18:50;7.60;;;2.45;;
6898;SDS011;3488;42.616;23.350;2024-01-30T14:21:16;5.38;;;2.55;;
6898;SDS011;3488;42.616;23.350;2024-01-30T14:23:42;6.85;;;3.35;;
6898;SDS011;3488;42.616;23.350;2024-01-30T14:26:07;7.28;;;3.50;;
6898;SDS011;3488;42.616;23.350;2024-01-30T14:30:58;9.98;;;3.20;;
6898;SDS011;3488;42.616;23.350;2024-01-30T14:33:24;5.68;;;2.78;;
6898;SDS011;3488;42.616;23.350;2024-01-30T14:35:51;8.48;;;3.35;;
6898;SDS011;3488;42.616;23.350;2024-01-30T14:38:16;6.90;;;3.20;;
6898;SDS011;3488;42.616;23.350;2024-01-30T14:43:07;5.43;;;3.10;;
6898;SDS011;3488;42.616;23.350;2024-01-30T14:45:33;7.78;;;3.35;;
6898;SDS011;3488;42.616;23.350;2024-01-30T14:47:58;5.65;;;2.85;;
6898;SDS011;3488;42.616;23.350;2024-01-30T14:50:25;7.95;;;3.10;;
6898;SDS011;3488;42.616;23.350;2024-01-30T14:52:51;8.70;;;4.18;;
6898;SDS011;3488;42.616;23.350;2024-01-30T14:55:17;8.85;;;3.97;;
6898;SDS011;3488;42.616;23.350;2024-01-30T15:00:10;7.57;;;3.67;;
6898;SDS011;3488;42.616;23.350;2024-01-30T15:02:36;6.80;;;3.55;;
6898;SDS011;3488;42.616;23.350;2024-01-30T15:07:27;11.57;;;3.80;;
6898;SDS011;3488;42.616;23.350;2024-01-30T15:09:54;10.57;;;3.90;;
6898;SDS011;3488;42.616;23.350;2024-01-30T15:12:19;8.85;;;3.45;;
6898;SDS011;3488;42.616;23.350;2024-01-30T15:14:45;6.60;;;3.28;;
6898;SDS011;3488;42.616;23.350;2024-01-30T15:17:18;9.73;;;4.38;;
6898;SDS011;3488;42.616;23.350;2024-01-30T15:19:44;7.05;;;3.50;;
6898;SDS011;3488;42.616;23.350;2024-01-30T15:22:09;7.30;;;3.10;;
6898;SDS011;3488;42.616;23.350;2024-01-30T15:27:01;7.55;;;3.38;;
6898;SDS011;3488;42.616;23.350;2024-01-30T15:29:26;8.60;;;3.53;;
6898;SDS011;3488;42.616;23.350;2024-01-30T15:31:52;8.27;;;3.50;;
6898;SDS011;3488;42.616;23.350;2024-01-30T15:36:43;9.80;;;4.40;;
6898;SDS011;3488;42.616;23.350;2024-01-30T15:41:35;12.20;;;4.43;;
6898;SDS011;3488;42.616;23.350;2024-01-30T15:44:01;14.50;;;5.85;;
6898;SDS011;3488;42.616;23.350;2024-01-30T15:48:53;10.95;;;4.30;;
6898;SDS011;3488;42.616;23.350;2024-01-30T15:53:44;8.25;;;3.80;;
6898;SDS011;3488;42.616;23.350;2024-01-30T15:58:35;11.80;;;4.30;;
6898;SDS011;3488;42.616;23.350;2024-01-30T16:03:27;8.70;;;3.42;;
6898;SDS011;3488;42.616;23.350;2024-01-30T16:05:53;10.68;;;4.35;;
6898;SDS011;3488;42.616;23.350;2024-01-30T16:10:44;9.85;;;4.93;;
6898;SDS011;3488;42.616;23.350;2024-01-30T16:15:35;6.93;;;3.42;;
6898;SDS011;3488;42.616;23.350;2024-01-30T16:20:26;9.23;;;4.22;;
6898;SDS011;3488;42.616;23.350;2024-01-30T16:25:18;6.32;;;3.35;;
6898;SDS011;3488;42.616;23.350;2024-01-30T16:27:45;9.95;;;4.13;;
6898;SDS011;3488;42.616;23.350;2024-01-30T16:32:43;11.80;;;4.72;;
6898;SDS011;3488;42.616;23.350;2024-01-30T16:35:09;8.60;;;3.50;;
6898;SDS011;3488;42.616;23.350;2024-01-30T16:40:00;11.83;;;5.20;;
6898;SDS011;3488;42.616;23.350;2024-01-30T16:42:29;11.00;;;5.03;;
6898;SDS011;3488;42.616;23.350;2024-01-30T16:47:20;9.05;;;4.03;;
6898;SDS011;3488;42.616;23.350;2024-01-30T16:52:12;15.65;;;5.60;;
6898;SDS011;3488;42.616;23.350;2024-01-30T16:57:03;19.60;;;8.20;;
6898;SDS011;3488;42.616;23.350;2024-01-30T16:59:41;23.45;;;10.75;;
6898;SDS011;3488;42.616;23.350;2024-01-30T17:04:33;16.80;;;6.88;;
6898;SDS011;3488;42.616;23.350;2024-01-30T17:06:59;17.80;;;5.78;;
6898;SDS011;3488;42.616;23.350;2024-01-30T17:11:50;17.60;;;8.53;;
6898;SDS011;3488;42.616;23.350;2024-01-30T17:14:15;22.92;;;9.77;;
6898;SDS011;3488;42.616;23.350;2024-01-30T17:16:42;18.88;;;9.20;;
6898;SDS011;3488;42.616;23.350;2024-01-30T17:19:09;22.17;;;10.25;;
6898;SDS011;3488;42.616;23.350;2024-01-30T17:24:01;20.15;;;8.38;;
6898;SDS011;3488;42.616;23.350;2024-01-30T17:28:53;21.70;;;9.55;;
6898;SDS011;3488;42.616;23.350;2024-01-30T17:33:44;13.90;;;6.50;;
6898;SDS011;3488;42.616;23.350;2024-01-30T17:38:35;14.32;;;9.07;;
6898;SDS011;3488;42.616;23.350;2024-01-30T17:43:26;17.17;;;6.60;;
6898;SDS011;3488;42.616;23.350;2024-01-30T17:48:17;15.40;;;7.85;;
6898;SDS011;3488;42.616;23.350;2024-01-30T17:50:43;16.48;;;8.05;;
6898;SDS011;3488;42.616;23.350;2024-01-30T17:53:08;19.75;;;7.78;;
6898;SDS011;3488;42.616;23.350;2024-01-30T17:58:00;22.33;;;8.65;;
6898;SDS011;3488;42.616;23.350;2024-01-30T18:00:27;20.73;;;9.25;;
6898;SDS011;3488;42.616;23.350;2024-01-30T18:05:20;24.90;;;10.18;;
6898;SDS011;3488;42.616;23.350;2024-01-30T18:10:11;33.33;;;12.48;;
6898;SDS011;3488;42.616;23.350;2024-01-30T18:12:38;25.85;;;11.02;;
6898;SDS011;3488;42.616;23.350;2024-01-30T18:15:03;24.70;;;11.85;;
6898;SDS011;3488;42.616;23.350;2024-01-30T18:19:55;19.17;;;9.05;;
6898;SDS011;3488;42.616;23.350;2024-01-30T18:24:47;16.05;;;8.07;;
6898;SDS011;3488;42.616;23.350;2024-01-30T18:29:38;19.73;;;9.00;;
6898;SDS011;3488;42.616;23.350;2024-01-30T18:32:04;17.00;;;8.50;;
6898;SDS011;3488;42.616;23.350;2024-01-30T18:34:30;24.40;;;11.05;;
6898;SDS011;3488;42.616;23.350;2024-01-30T18:36:56;19.08;;;8.18;;
6898;SDS011;3488;42.616;23.350;2024-01-30T18:39:25;18.42;;;8.68;;
6898;SDS011;3488;42.616;23.350;2024-01-30T18:41:51;19.00;;;10.23;;
6898;SDS011;3488;42.616;23.350;2024-01-30T18:46:42;20.00;;;8.70;;
6898;SDS011;3488;42.616;23.350;2024-01-30T18:49:14;19.08;;;8.70;;
6898;SDS011;3488;42.616;23.350;2024-01-30T18:54:06;21.67;;;10.07;;
6898;SDS011;3488;42.616;23.350;2024-01-30T18:58:57;23.48;;;11.02;;
6898;SDS011;3488;42.616;23.350;2024-01-30T19:01:22;23.60;;;10.35;;
6898;SDS011;3488;42.616;23.350;2024-01-30T19:03:52;26.30;;;12.73;;
6898;SDS011;3488;42.616;23.350;2024-01-30T19:06:18;20.73;;;9.00;;
6898;SDS011;3488;42.616;23.350;2024-01-30T19:08:44;19.92;;;9.57;;
6898;SDS011;3488;42.616;23.350;2024-01-30T19:11:19;19.83;;;9.68;;
6898;SDS011;3488;42.616;23.350;2024-01-30T19:13:45;22.40;;;10.27;;
6898;SDS011;3488;42.616;23.350;2024-01-30T19:16:10;24.38;;;11.75;;
6898;SDS011;3488;42.616;23.350;2024-01-30T19:21:02;32.60;;;11.18;;